createdAt,value
2022-12-11T00:01:26.264Z,93372.78
2022-12-11T00:04:12.403Z,93367.19
2022-12-11T00:06:58.744Z,93361.53
2022-12-11T00:09:44.607Z,93379.84
2022-12-11T00:12:31.499Z,93387.63
2022-12-11T00:15:17.544Z,93367.75
2022-12-11T00:18:03.552Z,93346.47
2022-12-11T00:20:49.574Z,93364.50
2022-12-11T00:23:36.176Z,93400.31
2022-12-11T00:26:22.537Z,93407.88
2022-12-11T00:29:11.169Z,93402.50
2022-12-11T00:31:57.691Z,93402.72
2022-12-11T00:34:43.664Z,93396.81
2022-12-11T00:37:29.731Z,93395.50
2022-12-11T00:40:15.466Z,93369.59
2022-12-11T00:43:01.491Z,93405.38
2022-12-11T00:45:48.200Z,93412.94
2022-12-11T00:48:34.247Z,93414.53
2022-12-11T00:51:20.339Z,93425.34
2022-12-11T00:54:06.812Z,93422.13
2022-12-11T00:56:52.985Z,93397.06
2022-12-11T00:59:39.395Z,93410.84
2022-12-11T01:02:25.484Z,93422.91
2022-12-11T01:05:11.857Z,93436.88
2022-12-11T01:07:58.294Z,93430.69
2022-12-11T01:10:44.186Z,93418.59
2022-12-11T01:13:30.211Z,93427.47
2022-12-11T01:16:16.441Z,93422.34
2022-12-11T01:19:03.388Z,93423.41
2022-12-11T01:21:49.512Z,93435.53
2022-12-11T01:24:35.371Z,93443.34
2022-12-11T01:27:21.302Z,93449.53
2022-12-11T01:30:08.592Z,93431.44
2022-12-11T01:32:54.514Z,93444.13
2022-12-11T01:35:40.717Z,93427.16
2022-12-11T01:38:26.626Z,93417.47
2022-12-11T01:41:12.915Z,93412.34
2022-12-11T01:44:06.586Z,93411.03
2022-12-11T01:46:53.221Z,93404.88
2022-12-11T01:49:40.476Z,93404.84
2022-12-11T01:52:26.520Z,93396.50
2022-12-11T01:55:12.932Z,93399.72
2022-12-11T01:57:58.967Z,93401.59
2022-12-11T02:00:44.906Z,93398.91
2022-12-11T02:03:30.935Z,93381.97
2022-12-11T02:06:37.695Z,93405.13
2022-12-11T02:09:28.912Z,93398.91
2022-12-11T02:12:39.942Z,93399.47
2022-12-11T02:15:56.009Z,93413.19
2022-12-11T02:18:53.394Z,93398.69
2022-12-11T02:21:44.137Z,93409.97
2022-12-11T02:24:54.862Z,93416.44
2022-12-11T02:28:13.507Z,93405.69
2022-12-11T02:31:05.805Z,93392.75
2022-12-11T02:34:10.330Z,93415.63
2022-12-11T02:37:00.956Z,93416.75
2022-12-11T02:39:48.914Z,93432.38
2022-12-11T02:42:36.814Z,93433.44
2022-12-11T02:45:22.963Z,93438.00
2022-12-11T02:48:11.352Z,93441.28
2022-12-11T02:50:58.430Z,93428.91
2022-12-11T02:53:45.879Z,93413.78
2022-12-11T02:56:42.368Z,93464.44
2022-12-11T02:59:36.676Z,93442.28
2022-12-11T03:02:22.811Z,93451.47
2022-12-11T03:05:10.854Z,93488.13
2022-12-11T03:07:56.896Z,93489.16
2022-12-11T03:10:43.032Z,93493.22
2022-12-11T03:13:29.199Z,93478.69
2022-12-11T03:16:55.281Z,93489.94
2022-12-11T03:20:14.152Z,93495.09
2022-12-11T03:23:13.204Z,93477.88
2022-12-11T03:26:09.168Z,93490.53
2022-12-11T03:29:01.196Z,93485.72
2022-12-11T03:31:59.739Z,93477.09
2022-12-11T03:34:58.318Z,93467.13
2022-12-11T03:37:45.232Z,93475.78
2022-12-11T03:40:33.351Z,93473.34
2022-12-11T03:43:21.563Z,93471.47
2022-12-11T03:46:09.225Z,93473.13
2022-12-11T03:48:57.326Z,93454.75
2022-12-11T03:51:45.238Z,93450.19
2022-12-11T03:54:31.762Z,93464.47
2022-12-11T03:57:20.776Z,93457.19
2022-12-11T04:00:13.061Z,93452.34
2022-12-11T04:03:14.700Z,93446.91
2022-12-11T04:06:00.774Z,93472.50
2022-12-11T04:08:46.644Z,93486.22
2022-12-11T04:11:35.169Z,93475.47
2022-12-11T04:14:39.935Z,93470.56
2022-12-11T04:17:44.425Z,93481.63
2022-12-11T04:20:48.974Z,93447.94
2022-12-11T04:23:53.472Z,93461.69
2022-12-11T04:26:39.603Z,93462.19
2022-12-11T04:29:25.552Z,93497.78
2022-12-11T04:32:11.313Z,93484.88
2022-12-11T04:34:57.078Z,93494.81
2022-12-11T04:37:43.066Z,93490.25
2022-12-11T04:40:29.014Z,93498.03
2022-12-11T04:43:15.127Z,93495.34
2022-12-11T04:46:15.826Z,93495.09
2022-12-11T04:49:01.779Z,93479.75
2022-12-11T04:51:47.989Z,93473.56
2022-12-11T04:54:34.015Z,93493.22
2022-12-11T04:57:21.555Z,93481.34
2022-12-11T05:00:10.977Z,93490.53
2022-12-11T05:02:57.083Z,93471.38
2022-12-11T05:05:51.424Z,93477.84
2022-12-11T05:08:38.942Z,93469.78
2022-12-11T05:11:25.156Z,93468.97
2022-12-11T05:14:11.007Z,93468.97
2022-12-11T05:16:56.849Z,93490.81
2022-12-11T05:19:42.666Z,93479.97
2022-12-11T05:22:30.585Z,93486.75
2022-12-11T05:25:16.571Z,93461.94
2022-12-11T05:28:02.763Z,93484.06
2022-12-11T05:30:48.813Z,93476.25
2022-12-11T05:33:35.332Z,93462.78
2022-12-11T05:36:39.391Z,93459.78
2022-12-11T05:39:25.513Z,93468.19
2022-12-11T05:42:11.624Z,93467.91
2022-12-11T05:44:57.493Z,93463.03
2022-12-11T05:47:43.510Z,93469.81
2022-12-11T05:50:29.346Z,93468.16
2022-12-11T05:53:15.333Z,93488.63
2022-12-11T05:56:06.721Z,93462.22
2022-12-11T05:58:53.085Z,93483.25
2022-12-11T06:01:41.649Z,93485.13
2022-12-11T06:04:27.921Z,93494.53
2022-12-11T06:07:14.508Z,93491.59
2022-12-11T06:10:00.572Z,93485.09
2022-12-11T06:12:46.466Z,93500.16
2022-12-11T06:15:32.724Z,93505.84
2022-12-11T06:18:19.029Z,93514.72
2022-12-11T06:21:19.851Z,93517.94
2022-12-11T06:24:06.355Z,93520.91
2022-12-11T06:26:52.231Z,93529.50
2022-12-11T06:29:38.140Z,93510.09
2022-12-11T06:32:23.967Z,93516.56
2022-12-11T06:35:10.273Z,93528.41
2022-12-11T06:37:56.627Z,93544.84
2022-12-11T06:40:42.903Z,93530.22
2022-12-11T06:43:28.832Z,93552.09
2022-12-11T06:46:19.745Z,93561.78
2022-12-11T06:49:05.744Z,93554.75
2022-12-11T06:51:51.921Z,93540.47
2022-12-11T06:54:37.849Z,93566.03
2022-12-11T06:57:23.808Z,93562.53
2022-12-11T07:00:10.570Z,93553.09
2022-12-11T07:02:56.777Z,93571.19
2022-12-11T07:05:42.744Z,93565.00
2022-12-11T07:08:29.654Z,93556.88
2022-12-11T07:11:17.144Z,93575.50
2022-12-11T07:14:03.401Z,93563.09
2022-12-11T07:16:49.719Z,93574.69
2022-12-11T07:19:35.859Z,93583.03
2022-12-11T07:22:22.192Z,93592.97
2022-12-11T07:25:09.067Z,93586.53
2022-12-11T07:27:55.180Z,93599.97
2022-12-11T07:30:41.128Z,93601.03
2022-12-11T07:33:27.009Z,93606.94
2022-12-11T07:36:14.779Z,93613.66
2022-12-11T07:39:01.319Z,93588.81
2022-12-11T07:41:47.189Z,93616.91
2022-12-11T07:44:34.937Z,93603.13
2022-12-11T07:47:20.824Z,93602.84
2022-12-11T07:50:06.865Z,93605.25
2022-12-11T07:52:53.048Z,93621.72
2022-12-11T07:55:39.072Z,93633.31
2022-12-11T07:58:24.734Z,93636.56
2022-12-11T08:01:18.946Z,93634.97
2022-12-11T08:04:07.745Z,93643.50
2022-12-11T08:06:53.690Z,93623.88
2022-12-11T08:09:39.678Z,93638.28
2022-12-11T08:12:26.179Z,93641.94
2022-12-11T08:15:12.840Z,93627.97
2022-12-11T08:17:59.010Z,93647.44
2022-12-11T08:20:44.926Z,93663.03
2022-12-11T08:23:31.056Z,93650.78
2022-12-11T08:26:23.220Z,93658.00
2022-12-11T08:29:10.251Z,93662.78
2022-12-11T08:31:56.113Z,93672.09
2022-12-11T08:34:42.147Z,93669.56
2022-12-11T08:37:28.026Z,93665.75
2022-12-11T08:40:14.368Z,93664.63
2022-12-11T08:43:00.370Z,93650.13
2022-12-11T08:45:47.028Z,93664.81
2022-12-11T08:48:34.347Z,93654.19
2022-12-11T08:51:22.990Z,93672.88
2022-12-11T08:54:09.549Z,93667.63
2022-12-11T08:56:58.150Z,93674.22
2022-12-11T08:59:44.667Z,93682.41
2022-12-11T09:02:30.630Z,93683.84
2022-12-11T09:05:17.194Z,93678.66
2022-12-11T09:08:03.463Z,93698.50
2022-12-11T09:10:49.539Z,93681.91
2022-12-11T09:13:36.162Z,93700.94
2022-12-11T09:16:24.420Z,93700.44
2022-12-11T09:19:16.469Z,93701.00
2022-12-11T09:22:02.820Z,93694.97
2022-12-11T09:24:48.795Z,93705.63
2022-12-11T09:27:34.668Z,93700.88
2022-12-11T09:30:20.581Z,93699.25
2022-12-11T09:33:06.457Z,93708.94
2022-12-11T09:36:02.792Z,93699.72
2022-12-11T09:38:49.161Z,93697.47
2022-12-11T09:41:38.000Z,93697.13
2022-12-11T09:44:27.560Z,93729.28
2022-12-11T09:47:34.116Z,93730.44
2022-12-11T09:50:23.990Z,93718.34
2022-12-11T09:53:17.193Z,93735.50
2022-12-11T09:56:09.576Z,93730.56
2022-12-11T09:58:58.291Z,93741.53
2022-12-11T10:01:58.534Z,93752.84
2022-12-11T10:05:26.560Z,93753.31
2022-12-11T10:08:31.271Z,93769.03
2022-12-11T10:11:40.346Z,93778.38
2022-12-11T10:14:47.804Z,93787.22
2022-12-11T10:17:35.163Z,93791.56
2022-12-11T10:20:40.516Z,93783.28
2022-12-11T10:23:35.769Z,93777.34
2022-12-11T10:26:23.054Z,93803.31
2022-12-11T10:29:14.717Z,93803.66
2022-12-11T10:32:00.815Z,93801.09
2022-12-11T10:34:49.741Z,93795.63
2022-12-11T10:37:35.809Z,93804.56
2022-12-11T10:40:22.291Z,93803.75
2022-12-11T10:43:08.327Z,93808.19
2022-12-11T10:45:54.968Z,93807.13
2022-12-11T10:48:49.942Z,93797.47
2022-12-11T10:51:37.934Z,93816.78
2022-12-11T10:54:33.786Z,93807.56
2022-12-11T10:57:28.350Z,93823.63
2022-12-11T11:00:39.867Z,93813.13
2022-12-11T11:03:28.009Z,93818.34
2022-12-11T11:06:20.036Z,93828.47
2022-12-11T11:09:35.069Z,93837.06
2022-12-11T11:12:27.138Z,93835.88
2022-12-11T11:15:16.607Z,93845.88
2022-12-11T11:18:23.858Z,93846.06
2022-12-11T11:21:17.398Z,93851.56
2022-12-11T11:24:03.987Z,93857.25
2022-12-11T11:27:12.213Z,93870.91
2022-12-11T11:29:59.012Z,93878.94
2022-12-11T11:32:44.943Z,93891.69
2022-12-11T11:35:32.223Z,93896.88
2022-12-11T11:38:25.386Z,93900.44
2022-12-11T11:41:24.099Z,93923.47
2022-12-11T11:44:12.761Z,93900.72
2022-12-11T11:47:19.044Z,93924.06
2022-12-11T11:50:27.232Z,93903.88
2022-12-11T11:53:24.998Z,93913.03
2022-12-11T11:56:31.680Z,93918.13
2022-12-11T11:59:23.547Z,93897.72
2022-12-11T12:02:19.096Z,93884.66
2022-12-11T12:05:05.883Z,93899.09
2022-12-11T12:08:01.631Z,93889.91
2022-12-11T12:11:03.023Z,93890.81
2022-12-11T12:14:51.070Z,93875.31
2022-12-11T12:17:38.124Z,93896.66
2022-12-11T12:20:39.128Z,93916.59
2022-12-11T12:23:37.458Z,93915.22
2022-12-11T12:26:29.969Z,93924.19
2022-12-11T12:29:21.031Z,93911.50
2022-12-11T12:32:20.929Z,93921.78
2022-12-11T12:35:28.163Z,93923.72
2022-12-11T12:38:24.880Z,93916.31
2022-12-11T12:41:29.493Z,93881.31
2022-12-11T12:44:18.298Z,93879.81
2022-12-11T12:47:14.002Z,93883.75
2022-12-11T12:50:01.724Z,93896.00
2022-12-11T12:52:48.332Z,93895.63
2022-12-11T12:55:35.192Z,93889.84
2022-12-11T12:58:28.324Z,93897.25
2022-12-11T13:01:21.116Z,93880.19
2022-12-11T13:04:20.756Z,93891.22
2022-12-11T13:07:18.242Z,93892.28
2022-12-11T13:10:23.291Z,93890.94
2022-12-11T13:13:38.863Z,93930.53
2022-12-11T13:16:26.926Z,93916.53
2022-12-11T13:19:28.083Z,93931.22
2022-12-11T13:22:17.370Z,93930.41
2022-12-11T13:25:27.836Z,93926.66
2022-12-11T13:28:51.243Z,93930.13
2022-12-11T13:31:40.136Z,93953.50
2022-12-11T13:34:28.708Z,93940.38
2022-12-11T13:37:24.193Z,93970.13
2022-12-11T13:40:21.418Z,93961.13
2022-12-11T13:43:19.429Z,93973.22
2022-12-11T13:46:09.731Z,93959.00
2022-12-11T13:49:01.120Z,93954.03
2022-12-11T13:51:57.107Z,93959.38
2022-12-11T13:54:48.302Z,93974.97
2022-12-11T13:57:34.203Z,93969.25
2022-12-11T14:00:23.446Z,93976.81
2022-12-11T14:03:10.749Z,93974.16
2022-12-11T14:05:59.072Z,93969.00
2022-12-11T14:08:48.589Z,93970.72
2022-12-11T14:11:39.235Z,93989.13
2022-12-11T14:14:43.980Z,93981.53
2022-12-11T14:17:32.284Z,93970.44
2022-12-11T14:20:27.959Z,93964.16
2022-12-11T14:23:18.421Z,93987.84
2022-12-11T14:26:16.898Z,93993.03
2022-12-11T14:29:03.049Z,93999.81
2022-12-11T14:31:49.544Z,94002.09
2022-12-11T14:34:41.287Z,93994.91
2022-12-11T14:37:28.563Z,93963.84
2022-12-11T14:40:19.131Z,93988.84
2022-12-11T14:43:12.431Z,93994.41
2022-12-11T14:46:02.935Z,94002.41
2022-12-11T14:49:00.418Z,94011.66
2022-12-11T14:51:47.187Z,94031.78
2022-12-11T14:54:39.763Z,94023.59
2022-12-11T14:57:27.664Z,94017.84
2022-12-11T15:00:22.855Z,94030.16
2022-12-11T15:03:12.506Z,94012.13
2022-12-11T15:05:59.108Z,94009.66
2022-12-11T15:08:45.250Z,94003.66
2022-12-11T15:11:32.221Z,94010.91
2022-12-11T15:14:20.229Z,94020.38
2022-12-11T15:17:12.672Z,94007.25
2022-12-11T15:20:11.727Z,94006.81
2022-12-11T15:22:59.140Z,93972.91
2022-12-11T15:25:51.539Z,94006.00
2022-12-11T15:28:38.785Z,94018.50
2022-12-11T15:31:30.857Z,94027.91
2022-12-11T15:34:23.789Z,94021.97
2022-12-11T15:37:20.035Z,94023.19
2022-12-11T15:40:06.673Z,94017.44
2022-12-11T15:42:52.886Z,94036.31
2022-12-11T15:45:38.989Z,94033.38
2022-12-11T15:48:24.663Z,94046.09
2022-12-11T15:51:11.074Z,94051.69
2022-12-11T15:53:57.269Z,94049.63
2022-12-11T15:56:43.170Z,94040.66
2022-12-11T15:59:29.232Z,94045.53
2022-12-11T16:02:15.735Z,94041.50
2022-12-11T16:05:01.863Z,94049.31
2022-12-11T16:07:48.738Z,94048.91
2022-12-11T16:10:34.686Z,94054.91
2022-12-11T16:13:20.862Z,94038.56
2022-12-11T16:16:07.087Z,94052.09
2022-12-11T16:18:53.157Z,94072.53
2022-12-11T16:21:39.057Z,94069.47
2022-12-11T16:24:25.125Z,94053.28
2022-12-11T16:27:11.526Z,94043.88
2022-12-11T16:29:57.556Z,94064.25
2022-12-11T16:32:43.994Z,94061.56
2022-12-11T16:35:30.627Z,94062.38
2022-12-11T16:38:16.827Z,94071.41
2022-12-11T16:41:02.781Z,94053.81
2022-12-11T16:43:48.805Z,94080.25
2022-12-11T16:46:35.184Z,94086.78
2022-12-11T16:49:21.891Z,94071.38
2022-12-11T16:52:07.782Z,94064.81
2022-12-11T16:54:53.936Z,94056.00
2022-12-11T16:57:40.610Z,94068.47
2022-12-11T17:00:26.522Z,94070.34
2022-12-11T17:03:13.179Z,94074.84
2022-12-11T17:05:59.348Z,94040.28
2022-12-11T17:08:45.991Z,94039.25
2022-12-11T17:11:32.198Z,94062.66
2022-12-11T17:14:18.048Z,94073.06
2022-12-11T17:17:04.122Z,94082.97
2022-12-11T17:19:49.983Z,94061.91
2022-12-11T17:22:36.214Z,94076.47
2022-12-11T17:25:22.560Z,94066.03
2022-12-11T17:28:08.892Z,94057.63
2022-12-11T17:30:55.459Z,94039.59
2022-12-11T17:33:41.571Z,94055.38
2022-12-11T17:36:27.874Z,94056.41
2022-12-11T17:39:14.212Z,94060.50
2022-12-11T17:42:00.413Z,94062.78
2022-12-11T17:44:46.248Z,94071.59
2022-12-11T17:47:32.353Z,94069.72
2022-12-11T17:50:18.589Z,94074.47
2022-12-11T17:53:04.854Z,94058.53
2022-12-11T17:55:52.228Z,94069.59
2022-12-11T17:58:38.440Z,94079.44
2022-12-11T18:01:24.423Z,94100.13
2022-12-11T18:04:10.569Z,94112.63
2022-12-11T18:06:56.279Z,94104.47
2022-12-11T18:09:42.480Z,94101.19
2022-12-11T18:12:30.989Z,94115.53
2022-12-11T18:15:19.411Z,94121.91
2022-12-11T18:18:06.368Z,94116.19
2022-12-11T18:20:52.617Z,94123.56
2022-12-11T18:23:38.814Z,94126.63
2022-12-11T18:26:25.369Z,94119.88
2022-12-11T18:29:11.482Z,94116.81
2022-12-11T18:31:57.754Z,94139.31
2022-12-11T18:34:43.914Z,94125.00
2022-12-11T18:37:30.233Z,94120.47
2022-12-11T18:40:16.965Z,94140.13
2022-12-11T18:43:03.357Z,94135.84
2022-12-11T18:45:49.705Z,94133.41
2022-12-11T18:48:36.399Z,94127.66
2022-12-11T18:51:24.082Z,94146.72
2022-12-11T18:54:10.017Z,94146.28
2022-12-11T18:56:56.059Z,94153.25
2022-12-11T18:59:42.389Z,94145.66
2022-12-11T19:02:28.860Z,94148.34
2022-12-11T19:05:15.235Z,94152.84
2022-12-11T19:08:02.255Z,94128.25
2022-12-11T19:10:48.377Z,94128.47
2022-12-11T19:13:35.795Z,94154.91
2022-12-11T19:16:25.220Z,94152.03
2022-12-11T19:19:17.940Z,94155.50
2022-12-11T19:22:04.225Z,94149.16
2022-12-11T19:24:50.336Z,94160.00
2022-12-11T19:27:36.280Z,94162.28
2022-12-11T19:30:22.978Z,94169.22
2022-12-11T19:33:09.105Z,94188.06
2022-12-11T19:36:07.355Z,94185.84
2022-12-11T19:38:59.307Z,94200.16
2022-12-11T19:41:47.722Z,94196.88
2022-12-11T19:44:33.560Z,94187.69
2022-12-11T19:47:19.583Z,94193.41
2022-12-11T19:50:05.930Z,94185.84
2022-12-11T19:52:51.946Z,94195.88
2022-12-11T19:55:38.149Z,94197.28
2022-12-11T19:58:24.019Z,94212.25
2022-12-11T20:01:11.143Z,94204.25
2022-12-11T20:03:59.800Z,94208.56
2022-12-11T20:06:46.631Z,94213.69
2022-12-11T20:09:33.741Z,94216.13
2022-12-11T20:12:19.828Z,94214.50
2022-12-11T20:15:06.296Z,94210.22
2022-12-11T20:17:59.887Z,94198.72
2022-12-11T20:20:47.783Z,94225.38
2022-12-11T20:23:35.197Z,94222.06
2022-12-11T20:26:23.555Z,94229.84
2022-12-11T20:29:09.629Z,94227.59
2022-12-11T20:31:55.856Z,94226.97
2022-12-11T20:34:41.910Z,94220.97
2022-12-11T20:37:29.147Z,94231.44
2022-12-11T20:40:15.602Z,94226.50
2022-12-11T20:43:02.035Z,94251.72
2022-12-11T20:45:49.280Z,94249.44
2022-12-11T20:48:36.086Z,94257.41
2022-12-11T20:51:26.170Z,94255.56
2022-12-11T20:54:12.644Z,94242.84
2022-12-11T20:56:58.797Z,94261.31
2022-12-11T20:59:45.411Z,94249.22
2022-12-11T21:02:31.872Z,94252.09
2022-12-11T21:05:18.099Z,94250.63
2022-12-11T21:08:04.245Z,94250.84
2022-12-11T21:10:50.160Z,94241.22
2022-12-11T21:13:37.618Z,94248.81
2022-12-11T21:16:24.295Z,94252.69
2022-12-11T21:19:17.066Z,94241.16
2022-12-11T21:22:04.015Z,94253.66
2022-12-11T21:24:49.767Z,94260.44
2022-12-11T21:27:36.262Z,94271.25
2022-12-11T21:30:22.064Z,94269.03
2022-12-11T21:33:08.353Z,94265.34
2022-12-11T21:35:58.370Z,94246.44
2022-12-11T21:38:45.302Z,94263.69
2022-12-11T21:41:31.251Z,94274.13
2022-12-11T21:47:24.701Z,94240.50
2022-12-11T21:50:10.825Z,94266.72
2022-12-11T21:52:56.986Z,94270.59
2022-12-11T21:55:42.904Z,94246.44
2022-12-11T21:58:28.725Z,94261.78
2022-12-11T22:01:18.856Z,94267.31
2022-12-11T22:04:05.600Z,94247.81
2022-12-11T22:06:52.235Z,94258.91
2022-12-11T22:09:38.283Z,94267.91
2022-12-11T22:12:27.812Z,94249.22
2022-12-11T22:15:13.987Z,94252.69
2022-12-11T22:18:00.442Z,94260.31
2022-12-11T22:20:46.624Z,94278.53
2022-12-11T22:23:32.698Z,94252.47
2022-12-11T22:26:23.947Z,94282.41
2022-12-11T22:29:09.914Z,94263.34
2022-12-11T22:31:56.175Z,94237.31
2022-12-11T22:34:42.088Z,94266.06
2022-12-11T22:37:29.556Z,94287.50
2022-12-11T22:40:15.536Z,94303.28
2022-12-11T22:43:01.769Z,94297.53
2022-12-11T22:45:47.657Z,94298.56
2022-12-11T22:48:33.746Z,94308.16
2022-12-11T22:51:20.240Z,94295.84
2022-12-11T22:54:06.411Z,94302.63
2022-12-11T22:56:52.893Z,94291.75
2022-12-11T22:59:38.841Z,94317.19
2022-12-11T23:02:24.740Z,94283.34
2022-12-11T23:05:11.911Z,94286.09
2022-12-11T23:07:58.228Z,94274.63
2022-12-11T23:10:44.595Z,94282.81
2022-12-11T23:13:30.631Z,94268.88
2022-12-11T23:16:17.124Z,94285.72
2022-12-11T23:19:04.017Z,94287.72
2022-12-11T23:21:50.244Z,94270.31
2022-12-11T23:24:36.195Z,94275.22
2022-12-11T23:27:22.092Z,94268.06
2022-12-11T23:30:09.069Z,94271.75
2022-12-11T23:32:55.261Z,94285.72
2022-12-11T23:35:41.447Z,94286.75
2022-12-11T23:38:27.512Z,94310.09
2022-12-11T23:41:14.596Z,94294.34
2022-12-11T23:44:00.576Z,94294.31
2022-12-11T23:46:46.457Z,94306.59
2022-12-11T23:49:32.428Z,94294.06
2022-12-11T23:52:18.483Z,94296.56
2022-12-11T23:55:04.645Z,94292.06
2022-12-11T23:57:50.808Z,94290.75
